createdAt,value
2023-01-18T00:37:12.054Z,98635.57
2023-01-18T00:38:14.442Z,98635.28
2023-01-18T00:39:16.836Z,98633.11
2023-01-18T00:40:21.414Z,98629.05
2023-01-18T00:41:24.110Z,98635.38
2023-01-18T00:42:45.982Z,98633.86
2023-01-18T00:43:48.643Z,98627.73
2023-01-18T00:44:51.287Z,98631.05
2023-01-18T00:45:54.000Z,98624.90
2023-01-18T00:46:56.777Z,98626.70
2023-01-18T00:48:00.088Z,98630.38
2023-01-18T00:49:02.710Z,98627.84
2023-01-18T00:50:07.317Z,98624.33
2023-01-18T00:51:11.510Z,98626.28
2023-01-18T00:52:13.932Z,98634.28
2023-01-18T00:53:17.299Z,98627.38
2023-01-18T00:54:20.854Z,98630.29
2023-01-18T00:55:23.932Z,98628.69
2023-01-18T00:56:28.093Z,98624.55
2023-01-18T00:57:31.111Z,98619.44
2023-01-18T00:58:34.161Z,98616.16
2023-01-18T00:59:38.137Z,98611.13
2023-01-18T01:00:41.534Z,98607.11
2023-01-18T01:01:44.888Z,98612.79
2023-01-18T01:02:47.480Z,98607.13
2023-01-18T01:04:08.504Z,98607.56
2023-01-18T01:05:36.588Z,98608.04
2023-01-18T01:06:45.381Z,98605.70
2023-01-18T01:07:49.915Z,98615.16
2023-01-18T01:08:52.291Z,98613.06
2023-01-18T01:09:56.485Z,98609.16
2023-01-18T01:12:38.437Z,98604.95
2023-01-18T01:13:59.849Z,98610.23
2023-01-18T01:15:22.447Z,98605.59
2023-01-18T01:16:44.434Z,98610.53
2023-01-18T01:18:05.283Z,98610.43
2023-01-18T01:19:26.176Z,98613.80
2023-01-18T01:20:47.483Z,98618.17
2023-01-18T01:22:08.409Z,98601.14
2023-01-18T01:23:32.489Z,98600.17
2023-01-18T01:24:55.026Z,98598.37
2023-01-18T01:26:08.204Z,98610.86
2023-01-18T01:27:11.664Z,98591.05
2023-01-18T01:28:14.091Z,98596.39
2023-01-18T01:29:17.366Z,98600.77
2023-01-18T01:30:19.739Z,98596.26
2023-01-18T01:31:23.057Z,98601.47
2023-01-18T01:32:25.405Z,98592.48
2023-01-18T01:33:28.641Z,98601.23
2023-01-18T01:34:31.260Z,98595.02
2023-01-18T01:35:34.042Z,98599.26
2023-01-18T01:36:36.516Z,98589.41
2023-01-18T01:37:39.766Z,98596.45
2023-01-18T01:38:42.198Z,98584.78
2023-01-18T01:39:44.614Z,98597.05
2023-01-18T01:40:59.973Z,98596.18
2023-01-18T01:42:03.281Z,98588.89
2023-01-18T01:43:18.957Z,98591.42
2023-01-18T01:44:27.204Z,98587.78
2023-01-18T01:45:29.972Z,98600.15
2023-01-18T01:46:53.476Z,98598.34
2023-01-18T01:47:56.754Z,98591.16
2023-01-18T01:49:05.899Z,98591.16
2023-01-18T01:50:12.994Z,98593.69
2023-01-18T01:51:16.764Z,98594.56
2023-01-18T01:52:22.671Z,98586.54
2023-01-18T01:53:25.393Z,98586.54
2023-01-18T01:54:35.403Z,98591.89
2023-01-18T01:55:38.328Z,98583.87
2023-01-18T01:56:41.214Z,98581.89
2023-01-18T01:57:50.425Z,98585.40
2023-01-18T01:58:54.083Z,98582.73
2023-01-18T02:01:21.510Z,98572.84
2023-01-18T02:02:24.549Z,98575.44
2023-01-18T02:03:27.336Z,98571.92
2023-01-18T02:04:29.869Z,98576.41
2023-01-18T02:05:33.730Z,98563.91
2023-01-18T02:06:37.713Z,98565.61
2023-01-18T02:07:40.175Z,98562.94
2023-01-18T02:08:46.472Z,98566.34
2023-01-18T02:09:49.874Z,98569.84
2023-01-18T02:10:52.690Z,98569.84
2023-01-18T02:11:55.168Z,98567.17
2023-01-18T02:12:58.579Z,98564.50
2023-01-18T02:14:07.243Z,98568.04
2023-01-18T02:15:10.667Z,98565.23
2023-01-18T02:16:40.133Z,98565.23
2023-01-18T02:18:07.173Z,98558.05
2023-01-18T02:19:16.795Z,98557.20
2023-01-18T02:20:32.002Z,98561.69
2023-01-18T02:21:38.858Z,98561.69
2023-01-18T02:23:08.848Z,98568.04
2023-01-18T02:24:18.049Z,98565.37
2023-01-18T02:25:30.858Z,98558.31
2023-01-18T02:26:53.861Z,98561.96
2023-01-18T02:28:17.372Z,98565.61
2023-01-18T02:29:44.146Z,98565.61
2023-01-18T02:30:50.816Z,98557.69
2023-01-18T02:32:03.494Z,98557.69
2023-01-18T02:33:12.234Z,98560.50
2023-01-18T02:34:24.565Z,98560.64
2023-01-18T02:37:08.911Z,98551.72
2023-01-18T02:40:22.096Z,98552.69
2023-01-18T02:42:03.510Z,98554.59
2023-01-18T02:43:26.407Z,98549.35
2023-01-18T02:44:50.028Z,98552.03
2023-01-18T02:46:10.913Z,98556.54
2023-01-18T02:47:13.417Z,98554.84
2023-01-18T02:48:16.207Z,98555.84
2023-01-18T02:49:23.524Z,98545.98
2023-01-18T02:50:27.987Z,98546.12
2023-01-18T02:51:30.584Z,98551.33
2023-01-18T02:52:45.761Z,98548.79
2023-01-18T02:53:49.101Z,98537.13
2023-01-18T02:54:51.453Z,98534.31
2023-01-18T02:56:07.897Z,98541.47
2023-01-18T02:57:12.659Z,98550.22
2023-01-18T02:58:36.663Z,98545.56
2023-01-18T03:01:05.109Z,98551.72
2023-01-18T03:02:10.940Z,98541.92
2023-01-18T03:03:14.473Z,98549.95
2023-01-18T03:04:20.710Z,98540.09
2023-01-18T03:05:25.338Z,98544.46
2023-01-18T03:06:28.785Z,98546.16
2023-01-18T03:08:04.403Z,98552.34
2023-01-18T03:09:07.245Z,98546.02
2023-01-18T03:10:10.532Z,98529.04
2023-01-18T03:11:25.030Z,98536.20
2023-01-18T03:12:45.936Z,98533.38
2023-01-18T03:13:58.108Z,98530.70
2023-01-18T03:15:12.039Z,98525.50
2023-01-18T03:16:22.748Z,98527.20
2023-01-18T03:17:41.225Z,98526.23
2023-01-18T03:18:59.758Z,98513.83
2023-01-18T03:20:05.945Z,98510.33
2023-01-18T03:21:08.326Z,98495.11
2023-01-18T03:22:10.710Z,98496.95
2023-01-18T03:23:38.135Z,98505.81
2023-01-18T03:24:41.807Z,98509.32
2023-01-18T03:25:49.241Z,98506.64
2023-01-18T03:26:53.329Z,98508.48
2023-01-18T03:28:15.006Z,98507.66
2023-01-18T03:29:36.657Z,98509.32
2023-01-18T03:30:58.640Z,98500.46
2023-01-18T03:32:30.215Z,98511.99
2023-01-18T03:33:44.074Z,98514.80
2023-01-18T03:35:08.481Z,98510.33
2023-01-18T03:36:14.302Z,98515.67
2023-01-18T03:37:22.843Z,98517.48
2023-01-18T03:38:25.112Z,98521.13
2023-01-18T03:39:38.696Z,98516.75
2023-01-18T03:40:41.728Z,98507.75
2023-01-18T03:41:46.114Z,98519.28
2023-01-18T03:43:06.867Z,98524.63
2023-01-18T03:44:11.453Z,98516.61
2023-01-18T03:45:32.472Z,98515.67
2023-01-18T03:46:35.188Z,98523.69
2023-01-18T03:47:37.726Z,98526.23
2023-01-18T03:48:40.427Z,98526.23
2023-01-18T03:49:43.459Z,98525.26
2023-01-18T03:50:55.598Z,98521.58
2023-01-18T03:52:13.574Z,98518.06
2023-01-18T03:53:36.642Z,98525.95
2023-01-18T03:54:46.824Z,98526.78
2023-01-18T03:55:52.137Z,98523.14
2023-01-18T03:57:17.052Z,98521.44
2023-01-18T03:58:21.874Z,98521.44
2023-01-18T03:59:25.192Z,98520.47
2023-01-18T04:00:27.677Z,98518.66
2023-01-18T04:01:30.757Z,98525.81
2023-01-18T04:02:33.341Z,98531.02
2023-01-18T04:03:36.717Z,98525.67
2023-01-18T04:04:39.189Z,98528.34
2023-01-18T04:05:41.502Z,98527.38
2023-01-18T04:06:44.016Z,98514.84
2023-01-18T04:07:46.966Z,98521.05
2023-01-18T04:08:49.846Z,98521.89
2023-01-18T04:09:52.665Z,98519.08
2023-01-18T04:10:55.057Z,98527.09
2023-01-18T04:11:58.868Z,98526.95
2023-01-18T04:13:02.157Z,98523.45
2023-01-18T04:14:05.603Z,98518.94
2023-01-18T04:15:09.368Z,98521.47
2023-01-18T04:16:12.854Z,98525.84
2023-01-18T04:17:16.679Z,98521.36
2023-01-18T04:18:19.163Z,98523.17
2023-01-18T04:19:23.507Z,98515.01
2023-01-18T04:20:25.967Z,98511.50
2023-01-18T04:21:28.418Z,98511.50
2023-01-18T04:22:30.832Z,98513.20
2023-01-18T04:23:34.430Z,98515.88
2023-01-18T04:24:36.983Z,98510.52
2023-01-18T04:25:40.315Z,98520.22
2023-01-18T04:26:43.701Z,98526.44
2023-01-18T04:27:46.583Z,98521.92
2023-01-18T04:28:49.101Z,98517.55
2023-01-18T04:29:52.411Z,98525.46
2023-01-18T04:30:55.479Z,98519.25
2023-01-18T04:31:57.924Z,98520.95
2023-01-18T04:33:00.695Z,98521.78
2023-01-18T04:34:03.438Z,98520.95
2023-01-18T04:35:07.860Z,98519.11
2023-01-18T04:36:10.502Z,98521.78
2023-01-18T04:37:12.916Z,98525.32
2023-01-18T04:38:15.884Z,98518.97
2023-01-18T04:39:18.925Z,98524.31
2023-01-18T04:40:21.234Z,98528.83
2023-01-18T04:41:23.749Z,98529.66
2023-01-18T04:42:26.356Z,98516.29
2023-01-18T04:43:29.322Z,98518.97
2023-01-18T04:44:31.641Z,98516.29
2023-01-18T04:45:33.960Z,98521.50
2023-01-18T04:46:38.282Z,98517.99
2023-01-18T04:47:42.219Z,98523.34
2023-01-18T04:48:44.544Z,98525.18
2023-01-18T04:49:47.672Z,98533.06
2023-01-18T04:50:50.623Z,98531.36
2023-01-18T04:51:52.988Z,98535.88
2023-01-18T04:52:55.724Z,98533.06
2023-01-18T04:54:00.237Z,98531.36
2023-01-18T04:55:02.849Z,98534.05
2023-01-18T04:56:07.156Z,98535.74
2023-01-18T04:57:09.615Z,98530.39
2023-01-18T04:58:12.049Z,98533.06
2023-01-18T04:59:16.239Z,98530.39
2023-01-18T05:00:21.731Z,98530.39
2023-01-18T05:01:25.443Z,98526.84
2023-01-18T05:02:28.115Z,98525.05
2023-01-18T05:03:31.023Z,98523.20
2023-01-18T05:04:34.272Z,98523.20
2023-01-18T05:05:36.674Z,98531.23
2023-01-18T05:06:39.093Z,98530.25
2023-01-18T05:07:41.508Z,98528.55
2023-01-18T05:08:43.896Z,98522.23
2023-01-18T05:09:46.617Z,98519.55
2023-01-18T05:10:50.409Z,98518.58
2023-01-18T05:11:52.590Z,98512.36
2023-01-18T05:12:54.900Z,98516.73
2023-01-18T05:13:58.002Z,98509.55
2023-01-18T05:15:01.526Z,98509.44
2023-01-18T05:16:07.372Z,98514.78
2023-01-18T05:17:11.231Z,98503.08
2023-01-18T05:18:14.108Z,98500.27
2023-01-18T05:19:16.526Z,98504.64
2023-01-18T05:20:18.947Z,98500.13
2023-01-18T05:21:21.459Z,98500.99
2023-01-18T05:22:23.798Z,98501.83
2023-01-18T05:23:26.514Z,98508.05
2023-01-18T05:24:30.090Z,98505.36
2023-01-18T05:25:32.678Z,98494.52
2023-01-18T05:26:36.229Z,98499.87
2023-01-18T05:27:39.270Z,98499.87
2023-01-18T05:28:42.714Z,98493.66
2023-01-18T05:29:49.612Z,98491.84
2023-01-18T05:30:52.419Z,98496.19
2023-01-18T05:31:54.814Z,98493.52
2023-01-18T05:32:57.468Z,98489.17
2023-01-18T05:34:00.579Z,98490.84
2023-01-18T05:35:04.263Z,98487.33
2023-01-18T05:36:07.466Z,98493.52
2023-01-18T05:37:10.217Z,98498.87
2023-01-18T05:38:13.019Z,98503.38
2023-01-18T05:39:15.525Z,98503.38
2023-01-18T05:40:18.276Z,98503.38
2023-01-18T05:41:20.756Z,98503.38
2023-01-18T05:42:23.287Z,98506.89
2023-01-18T05:43:26.526Z,98497.20
2023-01-18T05:44:29.572Z,98512.24
2023-01-18T05:45:32.118Z,98498.87
2023-01-18T05:46:34.468Z,98502.55
2023-01-18T05:47:37.855Z,98497.05
2023-01-18T05:48:40.696Z,98496.19
2023-01-18T05:49:43.120Z,98497.89
2023-01-18T09:50:26.777Z,98340.65
2023-01-18T09:51:35.883Z,98331.45
2023-01-18T09:53:02.755Z,98324.67
2023-01-18T09:55:42.577Z,98319.83
2023-01-18T09:58:22.157Z,98319.41
2023-01-18T09:59:42.203Z,98315.78
2023-01-18T10:00:46.548Z,98312.11
2023-01-18T10:01:49.336Z,98317.13
2023-01-18T10:03:02.125Z,98314.55
2023-01-18T10:04:21.013Z,98313.66
2023-01-18T10:05:26.145Z,98316.16
2023-01-18T10:06:38.804Z,98316.09
2023-01-18T10:07:45.493Z,98313.48
2023-01-18T10:09:04.086Z,98317.91
2023-01-18T10:10:09.371Z,98315.42
2023-01-18T10:12:51.730Z,98304.88
2023-01-18T10:14:06.588Z,98311.47
2023-01-18T10:15:32.218Z,98301.10
2023-01-18T10:16:34.968Z,98306.79
2023-01-18T10:18:54.760Z,98304.59
2023-01-18T10:19:56.999Z,98303.31
2023-01-18T10:21:03.934Z,98300.25
2023-01-18T10:22:18.639Z,98303.48
2023-01-18T10:23:44.102Z,98306.59
2023-01-18T10:24:57.193Z,98306.03
2023-01-18T10:26:03.322Z,98301.13
2023-01-18T10:28:55.732Z,98302.13
2023-01-18T10:30:05.105Z,98301.14
2023-01-18T10:32:35.713Z,98306.65
2023-01-18T10:33:41.804Z,98304.80
2023-01-18T10:34:47.165Z,98308.34
2023-01-18T10:37:16.264Z,98307.66
2023-01-18T10:38:21.337Z,98305.81
2023-01-18T10:39:27.643Z,98299.31
2023-01-18T10:40:30.977Z,98303.58
2023-01-18T10:42:53.413Z,98300.50
2023-01-18T10:43:56.126Z,98303.86
2023-01-18T10:44:58.932Z,98299.38
2023-01-18T10:46:02.428Z,98307.27
2023-01-18T10:47:05.079Z,98300.91
2023-01-18T10:49:36.752Z,98303.32
2023-01-18T10:50:39.840Z,98304.02
2023-01-18T10:51:44.070Z,98308.37
2023-01-18T10:52:47.776Z,98299.38
2023-01-18T10:53:50.996Z,98291.22
2023-01-18T10:55:01.219Z,98298.23
2023-01-18T10:56:18.893Z,98287.53
2023-01-18T10:59:00.544Z,98295.14
2023-01-18T11:00:11.609Z,98285.43
2023-01-18T11:02:36.514Z,98274.57
2023-01-18T11:04:00.471Z,98276.57
2023-01-18T11:05:07.521Z,98279.25
2023-01-18T11:06:10.872Z,98282.61
2023-01-18T11:07:13.301Z,98268.41
2023-01-18T11:08:32.257Z,98277.27
2023-01-18T11:09:55.987Z,98277.27
2023-01-18T11:12:45.440Z,98270.77
2023-01-18T11:13:49.214Z,98273.61
2023-01-18T11:14:52.259Z,98270.93
2023-01-18T11:16:08.378Z,98267.39
2023-01-18T11:17:11.374Z,98267.54
2023-01-18T11:18:16.820Z,98274.58
2023-01-18T11:19:19.323Z,98260.38
2023-01-18T11:21:49.427Z,98275.14
2023-01-18T11:24:16.220Z,98280.49
2023-01-18T11:25:21.200Z,98265.44
2023-01-18T11:26:24.580Z,98268.94
2023-01-18T11:27:27.841Z,98268.11
2023-01-18T11:28:42.289Z,98268.94
2023-01-18T11:29:45.067Z,98265.29
2023-01-18T11:31:16.981Z,98272.19
2023-01-18T11:32:30.552Z,98266.84
2023-01-18T11:33:33.610Z,98260.66
2023-01-18T11:34:38.953Z,98261.48
2023-01-18T11:35:41.402Z,98266.84
2023-01-18T11:36:45.209Z,98274.03
2023-01-18T11:37:48.237Z,98270.49
2023-01-18T11:38:50.573Z,98276.70
2023-01-18T11:39:53.834Z,98274.03
2023-01-18T11:41:06.424Z,98271.36
2023-01-18T11:42:31.515Z,98272.19
2023-01-18T11:43:35.486Z,98273.02
2023-01-18T11:45:58.993Z,98272.19
2023-01-18T11:47:03.314Z,98268.68
2023-01-18T11:48:13.970Z,98268.68
2023-01-18T11:49:46.841Z,98271.36
2023-01-18T11:52:41.735Z,98268.67
2023-01-18T11:54:06.247Z,98268.80
2023-01-18T11:55:19.973Z,98277.83
2023-01-18T11:56:32.069Z,98260.23
2023-01-18T11:57:37.577Z,98271.08
2023-01-18T11:58:40.871Z,98267.54
2023-01-18T11:59:45.945Z,98270.22
2023-01-18T12:00:58.036Z,98265.73
2023-01-18T12:02:11.018Z,98265.73
2023-01-18T12:03:23.944Z,98269.23
2023-01-18T12:06:05.942Z,98276.13
2023-01-18T12:07:37.940Z,98272.74
2023-01-18T12:08:56.289Z,98278.09
2023-01-18T12:10:00.793Z,98279.94
2023-01-18T12:11:22.387Z,98268.41
2023-01-18T12:12:51.574Z,98272.89
2023-01-18T12:14:16.486Z,98272.05
2023-01-18T12:15:27.056Z,98268.55
2023-01-18T12:17:04.810Z,98272.20
2023-01-18T12:18:29.259Z,98273.18
2023-01-18T12:19:53.567Z,98269.67
2023-01-18T12:21:05.766Z,98271.48
2023-01-18T12:22:24.730Z,98273.47
2023-01-18T12:23:45.179Z,98274.45
2023-01-18T12:25:03.683Z,98276.29
2023-01-18T12:26:21.807Z,98274.59
2023-01-18T12:27:40.121Z,98271.09
2023-01-18T12:28:53.113Z,98272.06
2023-01-18T12:30:18.295Z,98269.39
2023-01-18T12:33:31.276Z,98267.69
2023-01-18T12:34:43.454Z,98279.37
2023-01-18T12:37:32.163Z,98283.88
2023-01-18T12:38:35.488Z,98276.98
2023-01-18T12:39:58.412Z,98283.34
2023-01-18T12:41:38.759Z,98285.87
2023-01-18T12:42:45.090Z,98280.52
2023-01-18T12:43:55.685Z,98286.27
2023-01-18T12:46:29.933Z,98289.23
2023-01-18T12:47:36.454Z,98285.72
2023-01-18T12:49:56.828Z,98286.55
2023-01-18T12:50:59.920Z,98284.86
2023-01-18T12:52:18.246Z,98283.05
2023-01-18T12:53:19.346Z,98287.39
2023-01-18T12:54:32.025Z,98288.11
2023-01-18T12:55:37.376Z,98284.31
2023-01-18T12:56:42.563Z,98291.36
2023-01-18T12:57:46.591Z,98289.52
2023-01-18T12:58:52.931Z,98291.22
2023-01-18T13:01:21.270Z,98292.61
2023-01-18T13:02:28.277Z,98295.30
2023-01-18T13:03:37.405Z,98295.30
2023-01-18T13:04:45.754Z,98295.30
2023-01-18T13:07:08.779Z,98292.17
2023-01-18T13:09:32.183Z,98290.33
2023-01-18T13:10:35.262Z,98293.16
2023-01-18T13:11:40.696Z,98290.34
2023-01-18T13:12:44.097Z,98290.34
2023-01-18T13:13:48.507Z,98281.34
2023-01-18T13:14:57.054Z,98282.17
2023-01-18T13:16:03.323Z,98275.02
2023-01-18T13:17:24.975Z,98288.23
2023-01-18T13:18:33.257Z,98282.89
2023-01-18T13:21:15.958Z,98272.03
2023-01-18T13:22:25.702Z,98277.54
2023-01-18T13:23:34.623Z,98274.03
2023-01-18T13:25:17.378Z,98268.68
2023-01-18T13:26:26.735Z,98268.68
2023-01-18T13:27:30.775Z,98272.34
2023-01-18T13:28:34.299Z,98265.29
2023-01-18T13:29:38.748Z,98275.99
2023-01-18T13:31:01.484Z,98265.44
2023-01-18T13:32:06.224Z,98275.30
2023-01-18T13:33:13.875Z,98263.59
2023-01-18T13:34:44.470Z,98269.80
2023-01-18T13:35:49.057Z,98266.27
2023-01-18T13:36:59.738Z,98270.78
2023-01-18T13:39:17.165Z,98268.78
2023-01-18T13:40:38.890Z,98274.30
2023-01-18T13:42:58.143Z,98266.11
2023-01-18T13:45:21.060Z,98275.00
2023-01-18T13:46:24.849Z,98281.34
2023-01-18T13:47:47.526Z,98284.02
2023-01-18T19:44:21.520Z,98640.95
2023-01-18T19:45:28.826Z,98652.09
2023-01-18T19:46:30.766Z,98652.36
2023-01-18T19:47:33.762Z,98634.81
2023-01-18T19:48:38.569Z,98648.16
2023-01-18T19:49:44.683Z,98657.03
2023-01-18T19:50:47.705Z,98648.08
2023-01-18T19:53:03.894Z,98640.59
2023-01-18T19:54:09.176Z,98645.06
2023-01-18T19:55:12.669Z,98645.79
2023-01-18T19:56:15.613Z,98650.27
2023-01-18T19:57:18.101Z,98652.08
2023-01-18T19:58:20.956Z,98632.00
2023-01-18T19:59:23.960Z,98632.00
2023-01-18T20:00:26.335Z,98647.76
2023-01-18T20:01:36.267Z,98647.84
2023-01-18T20:02:33.853Z,98650.73
2023-01-18T20:03:37.401Z,98653.61
2023-01-18T20:04:40.041Z,98653.81
